createdAt,value
2022-11-08T00:02:08.779Z,100.00
2022-11-08T00:04:35.381Z,100.00
2022-11-08T00:07:20.520Z,100.00
2022-11-08T00:10:05.588Z,100.00
2022-11-08T00:12:50.488Z,100.00
2022-11-08T00:15:16.943Z,100.00
2022-11-08T00:17:43.513Z,100.00
2022-11-08T00:20:10.574Z,100.00
2022-11-08T00:22:37.028Z,100.00
2022-11-08T00:25:03.550Z,100.00
2022-11-08T00:27:30.028Z,100.00
2022-11-08T00:29:56.547Z,100.00
2022-11-08T00:32:24.614Z,100.00
2022-11-08T00:34:51.536Z,100.00
2022-11-08T00:37:19.184Z,100.00
2022-11-08T00:39:46.080Z,100.00
2022-11-08T00:42:12.636Z,100.00
2022-11-08T00:44:39.274Z,100.00
2022-11-08T00:47:06.105Z,100.00
2022-11-08T00:49:32.761Z,100.00
2022-11-08T00:51:59.224Z,100.00
2022-11-08T00:54:25.795Z,100.00
2022-11-08T00:56:52.250Z,100.00
2022-11-08T00:59:19.475Z,100.00
2022-11-08T01:01:46.881Z,100.00
2022-11-08T01:04:17.608Z,100.00
2022-11-08T01:06:44.114Z,100.00
2022-11-08T01:09:11.288Z,100.00
2022-11-08T01:11:38.879Z,100.00
2022-11-08T01:14:05.536Z,100.00
2022-11-08T01:16:33.142Z,100.00
2022-11-08T01:19:00.530Z,100.00
2022-11-08T01:21:27.444Z,100.00
2022-11-08T01:23:54.558Z,100.00
2022-11-08T01:26:26.291Z,100.00
2022-11-08T01:28:53.683Z,100.00
2022-11-08T01:31:24.906Z,100.00
2022-11-08T01:33:52.065Z,100.00
2022-11-08T01:36:23.632Z,100.00
2022-11-08T01:38:50.420Z,100.00
2022-11-08T01:41:17.741Z,100.00
2022-11-08T01:43:49.004Z,100.00
2022-11-08T01:46:18.316Z,100.00
2022-11-08T01:49:09.166Z,100.00
2022-11-08T01:51:54.325Z,100.00
2022-11-08T01:54:27.653Z,100.00
2022-11-08T01:56:54.869Z,100.00
2022-11-08T01:59:21.510Z,100.00
2022-11-08T02:01:48.034Z,100.00
2022-11-08T02:04:15.259Z,100.00
2022-11-08T02:06:42.723Z,100.00
2022-11-08T02:09:11.176Z,100.00
2022-11-08T02:11:38.474Z,100.00
2022-11-08T02:14:05.036Z,100.00
2022-11-08T02:16:31.636Z,100.00
2022-11-08T02:18:58.116Z,100.00
2022-11-08T02:21:32.674Z,100.00
2022-11-08T02:24:00.881Z,100.00
2022-11-08T02:26:35.178Z,100.00
2022-11-08T02:29:33.823Z,100.00
2022-11-08T02:32:01.413Z,100.00
2022-11-08T02:34:29.894Z,100.00
2022-11-08T02:36:56.702Z,100.00
2022-11-08T02:39:23.710Z,100.00
2022-11-08T02:41:50.169Z,100.00
2022-11-08T02:44:16.689Z,100.00
2022-11-08T02:46:43.191Z,100.00
2022-11-08T02:49:09.643Z,100.00
2022-11-08T02:51:36.104Z,100.00
2022-11-08T02:54:02.606Z,100.00
2022-11-08T02:56:29.057Z,100.00
2022-11-08T02:58:55.586Z,100.00
2022-11-08T03:01:22.400Z,100.00
2022-11-08T03:03:48.881Z,100.00
2022-11-08T03:06:15.491Z,100.00
2022-11-08T03:08:42.033Z,100.00
2022-11-08T03:11:08.555Z,100.00
2022-11-08T03:13:35.041Z,100.00
2022-11-08T03:16:03.558Z,100.00
2022-11-08T03:18:30.146Z,100.00
2022-11-08T03:20:56.634Z,100.00
2022-11-08T03:23:23.096Z,100.00
2022-11-08T03:25:49.566Z,100.00
2022-11-08T03:28:20.234Z,100.00
2022-11-08T03:30:51.148Z,100.00
2022-11-08T03:33:17.593Z,100.00
2022-11-08T03:35:44.073Z,100.00
2022-11-08T03:38:10.533Z,100.00
2022-11-08T03:40:37.001Z,100.00
2022-11-08T03:43:03.458Z,100.00
2022-11-08T03:45:30.105Z,100.00
2022-11-08T03:47:56.541Z,100.00
2022-11-08T03:50:23.007Z,100.00
2022-11-08T03:52:51.070Z,100.00
2022-11-08T03:55:18.661Z,100.00
2022-11-08T03:57:47.078Z,100.00
2022-11-08T04:00:14.738Z,100.00
2022-11-08T04:02:41.474Z,100.00
2022-11-08T04:05:09.832Z,100.00
2022-11-08T04:07:36.395Z,100.00
2022-11-08T04:10:04.248Z,100.00
2022-11-08T04:12:49.284Z,100.00
2022-11-08T04:15:19.512Z,100.00
2022-11-08T04:18:06.053Z,100.00
2022-11-08T04:20:51.164Z,100.00
2022-11-08T04:23:18.183Z,100.00
2022-11-08T04:25:45.189Z,100.00
2022-11-08T04:28:11.766Z,100.00
2022-11-08T04:30:38.264Z,100.00
2022-11-08T04:33:05.022Z,100.00
2022-11-08T04:35:31.770Z,100.00
2022-11-08T04:38:02.254Z,100.00
2022-11-08T04:40:30.604Z,100.00
2022-11-08T04:42:57.078Z,100.00
2022-11-08T04:45:23.539Z,100.00
2022-11-08T04:47:49.993Z,100.00
2022-11-08T04:50:16.566Z,100.00
2022-11-08T04:52:43.658Z,100.00
2022-11-08T04:55:10.299Z,100.00
2022-11-08T04:57:36.787Z,100.00
2022-11-08T05:00:04.239Z,100.00
2022-11-08T05:02:30.870Z,100.00
2022-11-08T05:04:57.786Z,100.00
2022-11-08T05:07:24.302Z,100.00
2022-11-08T05:09:50.783Z,100.00
2022-11-08T05:12:17.227Z,100.00
2022-11-08T05:14:43.733Z,100.00
2022-11-08T05:17:10.250Z,100.00
2022-11-08T05:19:55.372Z,100.00
2022-11-08T05:22:40.269Z,100.00
2022-11-08T05:25:06.978Z,100.00
2022-11-08T05:27:34.269Z,100.00
2022-11-08T05:30:01.184Z,100.00
2022-11-08T05:32:27.632Z,100.00
2022-11-08T05:34:54.087Z,100.00
2022-11-08T05:37:20.583Z,100.00
2022-11-08T05:39:47.183Z,100.00
2022-11-08T05:42:13.638Z,100.00
2022-11-08T05:44:40.107Z,100.00
2022-11-08T05:47:06.598Z,100.00
2022-11-08T05:49:33.052Z,100.00
2022-11-08T05:51:59.770Z,100.00
2022-11-08T05:54:26.234Z,100.00
2022-11-08T05:56:52.677Z,100.00
2022-11-08T05:59:19.151Z,100.00
2022-11-08T06:01:45.615Z,100.00
2022-11-08T06:04:12.180Z,100.00
2022-11-08T06:06:38.633Z,100.00
2022-11-08T06:09:05.148Z,100.00
2022-11-08T06:11:31.611Z,100.00
2022-11-08T06:13:58.266Z,100.00
2022-11-08T06:16:25.441Z,100.00
2022-11-08T06:18:52.125Z,100.00
2022-11-08T06:21:20.369Z,100.00
2022-11-08T06:23:47.166Z,100.00
2022-11-08T06:26:13.677Z,100.00
2022-11-08T06:28:40.171Z,100.00
2022-11-08T06:31:06.643Z,100.00
2022-11-08T06:33:33.417Z,100.00
2022-11-08T06:36:00.137Z,100.00
2022-11-08T06:38:26.624Z,100.00
2022-11-08T06:40:53.178Z,100.00
2022-11-08T06:43:20.383Z,100.00
2022-11-08T06:45:47.478Z,100.00
2022-11-08T06:48:13.985Z,100.00
2022-11-08T06:50:41.754Z,100.00
2022-11-08T06:53:10.209Z,100.00
2022-11-08T06:55:36.681Z,100.00
2022-11-08T06:58:05.472Z,100.00
2022-11-08T07:00:32.047Z,100.00
2022-11-08T07:03:03.561Z,100.00
2022-11-08T07:05:31.483Z,100.00
2022-11-08T07:07:58.708Z,100.00
2022-11-08T07:10:27.864Z,100.00
2022-11-08T07:12:59.722Z,100.00
2022-11-08T07:15:26.173Z,100.00
2022-11-08T07:17:52.672Z,100.00
2022-11-08T07:20:19.132Z,100.00
2022-11-08T07:22:45.609Z,100.00
2022-11-08T07:25:12.069Z,100.00
2022-11-08T07:27:38.529Z,100.00
2022-11-08T07:30:05.954Z,100.00
2022-11-08T07:32:32.419Z,100.00
2022-11-08T07:34:58.913Z,100.00
2022-11-08T07:37:25.362Z,100.00
2022-11-08T07:39:51.821Z,100.00
2022-11-08T07:42:18.274Z,100.00
2022-11-08T07:44:44.777Z,100.00
2022-11-08T07:47:11.250Z,100.00
2022-11-08T07:49:37.695Z,100.00
2022-11-08T07:52:04.220Z,100.00
2022-11-08T07:54:30.669Z,100.00
2022-11-08T07:56:57.131Z,100.00
2022-11-08T07:59:23.586Z,100.00
2022-11-08T08:01:50.121Z,100.00
2022-11-08T08:04:16.673Z,100.00
2022-11-08T08:06:43.138Z,100.00
2022-11-08T08:09:09.596Z,100.00
2022-11-08T08:11:36.049Z,100.00
2022-11-08T08:14:02.502Z,100.00
2022-11-08T08:16:28.966Z,100.00
2022-11-08T08:18:56.832Z,100.00
2022-11-08T08:21:23.567Z,100.00
2022-11-08T08:23:50.015Z,100.00
2022-11-08T08:26:16.482Z,100.00
2022-11-08T08:28:42.983Z,100.00
2022-11-08T08:31:09.600Z,100.00
2022-11-08T08:33:37.707Z,100.00
2022-11-08T08:36:04.729Z,99.91
2022-11-08T08:38:32.671Z,99.21
2022-11-08T08:40:59.315Z,99.53
2022-11-08T08:43:27.505Z,98.14
2022-11-08T08:45:54.580Z,98.48
2022-11-08T08:48:21.032Z,98.37
2022-11-08T08:50:48.177Z,99.54
2022-11-08T08:53:14.863Z,99.77
2022-11-08T08:55:42.882Z,100.00
2022-11-08T08:58:10.818Z,100.00
2022-11-08T09:03:24.073Z,100.00
2022-11-08T09:05:50.637Z,100.00
2022-11-08T09:08:17.093Z,100.00
2022-11-08T09:10:43.593Z,100.00
2022-11-08T09:13:10.326Z,100.00
2022-11-08T09:15:36.805Z,100.00
2022-11-08T09:18:03.408Z,100.00
2022-11-08T09:20:29.906Z,100.00
2022-11-08T09:22:58.364Z,100.00
2022-11-08T09:25:24.819Z,100.00
2022-11-08T09:27:54.293Z,100.00
2022-11-08T09:30:20.806Z,100.00
2022-11-08T09:33:00.395Z,99.34
2022-11-08T09:35:28.366Z,99.28
2022-11-08T09:37:55.018Z,99.05
2022-11-08T09:40:32.659Z,98.50
2022-11-08T09:43:12.304Z,98.65
2022-11-08T09:45:46.805Z,98.01
2022-11-08T09:48:30.141Z,97.46
2022-11-08T09:50:57.665Z,97.16
2022-11-08T09:53:47.739Z,96.32
2022-11-08T09:56:23.950Z,95.51
2022-11-08T09:59:01.912Z,95.93
2022-11-08T10:01:34.021Z,95.46
2022-11-08T10:04:05.586Z,94.73
2022-11-08T10:06:32.059Z,94.83
2022-11-08T10:09:21.798Z,95.21
2022-11-08T10:11:57.368Z,94.97
2022-11-08T10:14:54.336Z,94.43
2022-11-08T10:17:34.539Z,93.89
2022-11-08T10:20:10.981Z,93.54
2022-11-08T10:22:54.612Z,92.33
2022-11-08T10:25:26.999Z,91.71
2022-11-08T10:27:56.566Z,91.85
2022-11-08T10:30:27.667Z,91.06
2022-11-08T10:32:55.176Z,90.43
2022-11-08T10:35:41.867Z,90.58
2022-11-08T10:38:24.640Z,90.00
2022-11-08T10:40:57.301Z,88.37
2022-11-08T10:43:34.138Z,88.31
2022-11-08T10:46:00.801Z,87.46
2022-11-08T10:48:27.647Z,87.28
2022-11-08T10:50:55.533Z,86.69
2022-11-08T10:53:29.039Z,86.78
2022-11-08T10:56:04.147Z,86.96
2022-11-08T10:58:32.077Z,85.98
2022-11-08T11:01:16.027Z,85.93
2022-11-08T11:03:42.931Z,85.72
2022-11-08T11:06:32.518Z,84.93
2022-11-08T11:09:02.697Z,84.14
2022-11-08T11:11:31.993Z,83.44
2022-11-08T11:14:16.373Z,83.44
2022-11-08T11:16:57.370Z,82.23
2022-11-08T11:19:25.480Z,82.27
2022-11-08T11:22:02.598Z,82.30
2022-11-08T11:24:29.330Z,82.01
2022-11-08T11:27:19.226Z,82.09
2022-11-08T11:29:45.674Z,83.20
2022-11-08T11:32:32.926Z,83.45
2022-11-08T11:35:07.418Z,82.46
2022-11-08T11:37:44.716Z,81.97
2022-11-08T11:40:35.658Z,82.01
2022-11-08T11:43:23.384Z,81.96
2022-11-08T11:45:54.899Z,81.46
2022-11-08T11:48:32.336Z,81.82
2022-11-08T11:50:59.041Z,81.14
2022-11-08T11:53:26.993Z,80.34
2022-11-08T11:56:06.857Z,80.58
2022-11-08T11:58:41.018Z,80.97
2022-11-08T12:01:34.059Z,80.69
2022-11-08T12:04:16.413Z,80.72
2022-11-08T12:07:05.590Z,79.51
2022-11-08T12:09:53.979Z,79.79
2022-11-08T12:12:32.799Z,79.39
2022-11-08T12:15:08.239Z,80.28
2022-11-08T12:17:38.325Z,80.35
2022-11-08T12:20:26.657Z,79.87
2022-11-08T12:23:22.069Z,77.47
2022-11-08T12:26:02.280Z,75.75
2022-11-08T12:28:44.095Z,74.03
2022-11-08T12:31:42.626Z,74.40
2022-11-08T12:34:19.663Z,75.73
2022-11-08T12:37:10.913Z,76.22
2022-11-08T12:40:03.888Z,75.90
2022-11-08T12:42:39.280Z,76.55
2022-11-08T12:45:30.214Z,75.88
2022-11-08T12:48:11.725Z,75.74
2022-11-08T12:50:58.917Z,75.65
2022-11-08T12:53:31.585Z,75.71
2022-11-08T12:55:58.393Z,75.60
2022-11-08T12:58:34.792Z,75.60
2022-11-08T13:01:05.887Z,76.17
2022-11-08T13:03:49.241Z,76.80
2022-11-08T13:06:27.097Z,77.65
2022-11-08T13:09:08.887Z,78.40
2022-11-08T13:11:36.774Z,78.91
2022-11-08T13:14:04.035Z,78.94
2022-11-08T13:16:42.168Z,78.73
2022-11-08T13:19:26.552Z,79.84
2022-11-08T13:21:53.074Z,79.76
2022-11-08T13:27:40.808Z,80.96
2022-11-08T13:30:16.392Z,80.77
2022-11-08T13:32:42.739Z,80.97
2022-11-08T13:35:13.365Z,81.12
2022-11-08T13:37:57.332Z,81.24
2022-11-08T13:40:24.689Z,81.04
2022-11-08T13:43:31.928Z,81.58
2022-11-08T13:46:20.395Z,82.44
2022-11-08T13:49:07.288Z,82.36
2022-11-08T13:51:41.509Z,82.76
2022-11-08T13:54:23.341Z,82.52
2022-11-08T13:56:53.413Z,81.51
2022-11-08T13:59:32.318Z,81.46
2022-11-08T14:02:00.688Z,81.59
2022-11-08T14:04:36.849Z,81.08
2022-11-08T14:07:23.828Z,81.01
2022-11-08T14:10:04.377Z,81.45
2022-11-08T14:12:30.775Z,81.74
2022-11-08T14:15:15.445Z,81.20
2022-11-08T14:17:47.878Z,81.66
2022-11-08T14:20:32.240Z,81.78
2022-11-08T14:23:09.405Z,81.36
2022-11-08T14:25:36.066Z,81.54
2022-11-08T14:28:02.573Z,82.22
2022-11-08T14:30:29.021Z,81.91
2022-11-08T14:33:16.900Z,82.32
2022-11-08T14:35:51.460Z,82.31
2022-11-08T14:38:23.058Z,82.40
2022-11-08T14:40:52.195Z,82.21
2022-11-08T14:43:20.130Z,81.64
2022-11-08T14:45:47.124Z,82.02
2022-11-08T14:48:22.507Z,82.17
2022-11-08T14:50:48.956Z,82.46
2022-11-08T14:53:22.891Z,82.81
2022-11-08T14:55:56.386Z,81.92
2022-11-08T14:58:22.843Z,82.25
2022-11-08T15:00:49.764Z,82.97
2022-11-08T15:03:18.573Z,82.79
2022-11-08T15:05:47.974Z,82.82
2022-11-08T15:08:33.719Z,83.37
2022-11-08T15:11:30.522Z,82.96
2022-11-08T15:14:03.599Z,83.66
2022-11-08T15:16:40.768Z,83.52
2022-11-08T15:19:34.293Z,83.22
2022-11-08T15:22:02.846Z,84.02
2022-11-08T15:24:37.884Z,83.73
2022-11-08T15:27:10.308Z,83.87
2022-11-08T15:30:00.523Z,83.88
2022-11-08T15:32:27.688Z,83.67
2022-11-08T15:34:55.794Z,83.70
2022-11-08T15:37:39.277Z,83.68
2022-11-08T15:40:28.156Z,83.45
2022-11-08T15:42:54.796Z,83.58
2022-11-08T15:45:28.714Z,83.58
2022-11-08T15:48:11.614Z,83.02
2022-11-08T15:50:38.321Z,82.97
2022-11-08T15:53:05.308Z,83.08
2022-11-08T15:55:36.599Z,82.84
2022-11-08T15:58:03.367Z,82.87
2022-11-08T16:00:32.068Z,82.01
2022-11-08T16:02:58.793Z,82.75
2022-11-08T16:05:27.044Z,82.55
2022-11-08T16:07:53.918Z,81.89
2022-11-08T16:10:27.368Z,81.89
2022-11-08T16:12:53.869Z,82.05
2022-11-08T16:15:21.904Z,81.74
2022-11-08T16:17:48.472Z,81.62
2022-11-08T16:20:29.598Z,81.69
2022-11-08T16:22:57.599Z,81.56
2022-11-08T16:25:26.013Z,81.51
2022-11-08T16:28:08.567Z,80.53
2022-11-08T16:30:35.356Z,80.19
2022-11-08T16:33:02.321Z,80.49
2022-11-08T16:35:28.794Z,80.18
2022-11-08T16:37:55.264Z,80.56
2022-11-08T16:40:23.526Z,80.20
2022-11-08T16:42:51.959Z,80.59
2022-11-08T16:45:37.244Z,80.88
2022-11-08T16:48:07.173Z,79.92
2022-11-08T16:50:33.640Z,79.85
2022-11-08T16:53:00.086Z,80.04
2022-11-08T16:55:26.540Z,79.65
2022-11-08T16:57:52.977Z,79.84
2022-11-08T17:00:20.025Z,80.44
2022-11-08T17:02:51.672Z,79.91
2022-11-08T17:05:23.309Z,79.88
2022-11-08T17:07:51.123Z,80.66
2022-11-08T17:10:23.196Z,80.29
2022-11-08T17:12:50.181Z,80.80
2022-11-08T17:15:22.213Z,81.20
2022-11-08T17:17:49.045Z,80.37
2022-11-08T17:20:16.970Z,81.27
2022-11-08T17:22:44.502Z,80.75
2022-11-08T17:25:12.258Z,81.28
2022-11-08T17:27:38.912Z,81.34
2022-11-08T17:30:06.457Z,81.03
2022-11-08T17:32:34.520Z,81.18
2022-11-08T17:35:03.649Z,81.75
2022-11-08T17:37:31.074Z,81.83
2022-11-08T17:39:57.774Z,81.94
2022-11-08T17:42:24.827Z,82.29
2022-11-08T17:44:54.376Z,82.83
2022-11-08T17:47:21.019Z,82.55
2022-11-08T17:49:47.650Z,83.13
2022-11-08T17:52:14.500Z,83.37
2022-11-08T17:54:41.032Z,83.04
2022-11-08T17:57:07.685Z,83.70
2022-11-08T17:59:34.339Z,83.97
2022-11-08T18:02:00.992Z,83.92
2022-11-08T18:04:28.130Z,84.34
2022-11-08T18:06:54.953Z,84.52
2022-11-08T18:09:21.683Z,85.08
2022-11-08T18:11:48.254Z,84.93
2022-11-08T18:14:22.008Z,84.55
2022-11-08T18:16:52.534Z,84.74
2022-11-08T18:19:19.579Z,85.10
2022-11-08T18:21:46.285Z,85.38
2022-11-08T18:24:12.948Z,85.03
2022-11-08T18:26:39.474Z,84.83
2022-11-08T18:29:06.465Z,85.35
2022-11-08T18:31:33.142Z,85.33
2022-11-08T18:33:59.817Z,85.44
2022-11-08T18:36:29.798Z,85.37
2022-11-08T18:38:59.143Z,85.28
2022-11-08T18:41:28.540Z,84.98
2022-11-08T18:43:56.000Z,85.36
2022-11-08T18:46:24.025Z,85.35
2022-11-08T18:48:50.702Z,84.48
2022-11-08T18:51:18.894Z,85.18
2022-11-08T18:53:45.416Z,84.21
2022-11-08T18:56:12.652Z,84.31
2022-11-08T18:58:39.192Z,83.96
2022-11-08T19:01:06.174Z,84.12
2022-11-08T19:03:33.863Z,83.19
2022-11-08T19:06:00.372Z,83.39
2022-11-08T19:08:28.519Z,83.71
2022-11-08T19:10:56.992Z,83.67
2022-11-08T19:13:25.394Z,83.52
2022-11-08T19:15:59.167Z,83.73
2022-11-08T19:18:26.426Z,83.23
2022-11-08T19:21:04.909Z,83.30
2022-11-08T19:23:32.048Z,82.46
2022-11-08T19:26:00.864Z,82.46
2022-11-08T19:28:32.674Z,82.32
2022-11-08T19:30:59.991Z,82.31
2022-11-08T19:33:29.102Z,82.23
2022-11-08T19:35:59.998Z,82.88
2022-11-08T19:38:26.542Z,82.53
2022-11-08T19:40:53.012Z,82.67
2022-11-08T19:43:19.727Z,83.11
2022-11-08T19:45:52.590Z,83.23
2022-11-08T19:48:19.520Z,82.86
2022-11-08T19:50:46.769Z,82.96
2022-11-08T19:53:14.469Z,82.76
2022-11-08T19:55:40.963Z,82.65
2022-11-08T19:58:07.900Z,82.82
2022-11-08T20:00:34.689Z,82.86
2022-11-08T20:03:01.678Z,83.16
2022-11-08T20:05:28.253Z,83.77
2022-11-08T20:08:16.108Z,83.73
2022-11-08T20:10:42.782Z,83.69
2022-11-08T20:13:09.501Z,83.33
2022-11-08T20:15:41.886Z,83.96
2022-11-08T20:18:10.844Z,83.66
2022-11-08T20:20:41.444Z,83.94
2022-11-08T20:23:15.039Z,83.84
2022-11-08T20:25:41.420Z,83.98
2022-11-08T20:28:07.976Z,84.50
2022-11-08T20:30:43.416Z,84.58
2022-11-08T20:33:09.850Z,84.58
2022-11-08T20:35:36.463Z,84.04
2022-11-08T20:38:02.910Z,83.69
2022-11-08T20:40:29.395Z,84.11
2022-11-08T20:42:55.854Z,83.52
2022-11-08T20:45:22.314Z,83.55
2022-11-08T20:47:51.569Z,83.47
2022-11-08T20:50:18.047Z,83.71
2022-11-08T20:52:44.579Z,83.95
2022-11-08T20:55:11.106Z,84.31
2022-11-08T20:57:37.648Z,83.66
2022-11-08T21:00:13.059Z,83.72
2022-11-08T21:02:43.414Z,84.28
2022-11-08T21:05:09.983Z,83.80
2022-11-08T21:13:09.561Z,84.36
2022-11-08T21:15:36.210Z,84.19
2022-11-08T21:18:02.780Z,84.00
2022-11-08T21:20:29.447Z,84.13
2022-11-08T21:22:55.907Z,83.92
2022-11-08T21:25:22.975Z,83.92
2022-11-08T21:27:49.420Z,84.36
2022-11-08T21:30:15.886Z,84.15
2022-11-08T21:32:42.339Z,84.89
2022-11-08T21:35:09.131Z,85.05
2022-11-08T21:37:35.588Z,85.69
2022-11-08T21:40:02.110Z,85.41
2022-11-08T21:42:28.648Z,85.28
2022-11-08T21:44:55.113Z,85.11
2022-11-08T21:47:21.674Z,84.98
2022-11-08T21:49:48.221Z,84.94
2022-11-08T21:52:14.657Z,84.84
2022-11-08T21:54:41.119Z,84.91
2022-11-08T21:57:07.585Z,85.39
2022-11-08T21:59:34.029Z,85.21
2022-11-08T22:02:00.591Z,85.35
2022-11-08T22:04:27.042Z,84.99
2022-11-08T22:06:53.624Z,85.24
2022-11-08T22:09:20.104Z,85.21
2022-11-08T22:11:46.566Z,85.61
2022-11-08T22:14:13.018Z,85.67
2022-11-08T22:16:39.469Z,85.57
2022-11-08T22:19:06.375Z,85.95
2022-11-08T22:21:39.950Z,86.15
2022-11-08T22:24:15.023Z,86.50
2022-11-08T22:26:41.877Z,86.77
2022-11-08T22:29:08.526Z,87.05
2022-11-08T22:31:35.285Z,87.13
2022-11-08T22:34:02.269Z,87.34
2022-11-08T22:36:28.959Z,87.61
2022-11-08T22:38:55.865Z,88.00
2022-11-08T22:41:22.998Z,87.86
2022-11-08T22:43:49.965Z,88.20
2022-11-08T22:46:17.089Z,88.51
2022-11-08T22:48:43.947Z,88.43
2022-11-08T22:51:10.408Z,88.47
2022-11-08T22:53:37.101Z,88.50
2022-11-08T22:56:09.747Z,89.09
2022-11-08T22:58:37.668Z,89.19
2022-11-08T23:01:04.501Z,89.02
2022-11-08T23:03:30.952Z,89.74
2022-11-08T23:05:58.027Z,89.57
2022-11-08T23:08:25.495Z,89.68
2022-11-08T23:11:10.616Z,89.70
2022-11-08T23:13:56.133Z,89.59
2022-11-08T23:16:32.120Z,89.38
2022-11-08T23:19:20.830Z,89.39
2022-11-08T23:22:06.298Z,89.99
2022-11-08T23:24:32.834Z,89.98
2022-11-08T23:27:18.829Z,89.62
2022-11-08T23:30:03.972Z,90.17
2022-11-08T23:32:30.496Z,89.59
2022-11-08T23:34:57.027Z,89.58
2022-11-08T23:37:23.620Z,89.79
2022-11-08T23:40:08.665Z,90.20
2022-11-08T23:42:53.985Z,89.82
2022-11-08T23:45:20.613Z,89.93
2022-11-08T23:47:47.082Z,90.13
2022-11-08T23:50:13.535Z,89.86
2022-11-08T23:52:40.454Z,90.40
2022-11-08T23:55:07.358Z,90.18
2022-11-08T23:57:33.821Z,90.42
